sensor_id;sensor_type;location;lat;lon;timestamp;P1;durP1;ratioP1;P2;durP2;ratioP2
43098;SDS011;28715;51.988;6.020;2023-02-11T00:02:23;29.60;;;16.13;;
43098;SDS011;28715;51.988;6.020;2023-02-11T00:04:51;28.30;;;15.55;;
43098;SDS011;28715;51.988;6.020;2023-02-11T00:07:17;30.10;;;15.40;;
43098;SDS011;28715;51.988;6.020;2023-02-11T00:09:42;25.67;;;14.00;;
43098;SDS011;28715;51.988;6.020;2023-02-11T00:12:08;26.40;;;13.87;;
43098;SDS011;28715;51.988;6.020;2023-02-11T00:14:34;29.60;;;14.10;;
43098;SDS011;28715;51.988;6.020;2023-02-11T00:16:59;25.70;;;12.83;;
43098;SDS011;28715;51.988;6.020;2023-02-11T00:19:25;27.77;;;12.87;;
43098;SDS011;28715;51.988;6.020;2023-02-11T00:21:50;33.30;;;13.57;;
43098;SDS011;28715;51.988;6.020;2023-02-11T00:24:16;32.10;;;13.20;;
43098;SDS011;28715;51.988;6.020;2023-02-11T00:26:41;30.57;;;12.50;;
43098;SDS011;28715;51.988;6.020;2023-02-11T00:29:08;28.40;;;11.97;;
43098;SDS011;28715;51.988;6.020;2023-02-11T00:31:34;26.38;;;11.90;;
43098;SDS011;28715;51.988;6.020;2023-02-11T00:33:59;29.87;;;11.93;;
43098;SDS011;28715;51.988;6.020;2023-02-11T00:36:26;27.00;;;12.20;;
43098;SDS011;28715;51.988;6.020;2023-02-11T00:38:52;28.17;;;12.70;;
43098;SDS011;28715;51.988;6.020;2023-02-11T00:41:19;22.63;;;11.00;;
43098;SDS011;28715;51.988;6.020;2023-02-11T00:43:45;24.33;;;11.13;;
43098;SDS011;28715;51.988;6.020;2023-02-11T00:46:11;24.30;;;10.90;;
43098;SDS011;28715;51.988;6.020;2023-02-11T00:48:38;23.73;;;10.32;;
43098;SDS011;28715;51.988;6.020;2023-02-11T00:51:04;23.83;;;11.55;;
43098;SDS011;28715;51.988;6.020;2023-02-11T00:53:30;28.27;;;10.93;;
43098;SDS011;28715;51.988;6.020;2023-02-11T00:55:56;21.30;;;10.32;;
43098;SDS011;28715;51.988;6.020;2023-02-11T00:58:21;24.43;;;11.47;;
43098;SDS011;28715;51.988;6.020;2023-02-11T01:00:47;24.17;;;11.20;;
43098;SDS011;28715;51.988;6.020;2023-02-11T01:03:12;27.87;;;11.40;;
43098;SDS011;28715;51.988;6.020;2023-02-11T01:05:38;26.80;;;10.60;;
43098;SDS011;28715;51.988;6.020;2023-02-11T01:08:04;30.00;;;11.50;;
43098;SDS011;28715;51.988;6.020;2023-02-11T01:10:29;30.37;;;11.57;;
43098;SDS011;28715;51.988;6.020;2023-02-11T01:12:55;25.27;;;10.50;;
43098;SDS011;28715;51.988;6.020;2023-02-11T01:15:21;23.37;;;11.13;;
43098;SDS011;28715;51.988;6.020;2023-02-11T01:17:46;23.27;;;10.70;;
43098;SDS011;28715;51.988;6.020;2023-02-11T01:20:13;26.47;;;10.30;;
43098;SDS011;28715;51.988;6.020;2023-02-11T01:22:41;27.75;;;10.60;;
43098;SDS011;28715;51.988;6.020;2023-02-11T01:25:07;22.73;;;10.57;;
43098;SDS011;28715;51.988;6.020;2023-02-11T01:27:33;23.05;;;10.00;;
43098;SDS011;28715;51.988;6.020;2023-02-11T01:29:59;26.60;;;10.80;;
43098;SDS011;28715;51.988;6.020;2023-02-11T01:32:25;26.97;;;10.10;;
43098;SDS011;28715;51.988;6.020;2023-02-11T01:34:50;25.57;;;10.40;;
43098;SDS011;28715;51.988;6.020;2023-02-11T01:37:16;29.33;;;10.67;;
43098;SDS011;28715;51.988;6.020;2023-02-11T01:39:42;25.20;;;10.93;;
43098;SDS011;28715;51.988;6.020;2023-02-11T01:42:10;24.07;;;10.00;;
43098;SDS011;28715;51.988;6.020;2023-02-11T01:44:40;26.60;;;10.45;;
43098;SDS011;28715;51.988;6.020;2023-02-11T01:47:05;21.43;;;10.23;;
43098;SDS011;28715;51.988;6.020;2023-02-11T01:49:39;23.77;;;9.83;;
43098;SDS011;28715;51.988;6.020;2023-02-11T01:52:16;23.15;;;9.50;;
43098;SDS011;28715;51.988;6.020;2023-02-11T01:54:54;23.27;;;9.82;;
43098;SDS011;28715;51.988;6.020;2023-02-11T01:57:44;28.08;;;10.52;;
43098;SDS011;28715;51.988;6.020;2023-02-11T02:00:24;28.02;;;9.75;;
43098;SDS011;28715;51.988;6.020;2023-02-11T02:03:04;26.52;;;9.68;;
43098;SDS011;28715;51.988;6.020;2023-02-11T02:05:53;26.85;;;10.13;;
43098;SDS011;28715;51.988;6.020;2023-02-11T02:08:35;24.75;;;9.80;;
43098;SDS011;28715;51.988;6.020;2023-02-11T02:11:05;25.70;;;9.85;;
43098;SDS011;28715;51.988;6.020;2023-02-11T02:13:32;26.77;;;9.63;;
43098;SDS011;28715;51.988;6.020;2023-02-11T02:16:01;23.45;;;10.68;;
43098;SDS011;28715;51.988;6.020;2023-02-11T02:32:49;24.25;;;9.60;;
43098;SDS011;28715;51.988;6.020;2023-02-11T02:38:11;24.42;;;9.50;;
43098;SDS011;28715;51.988;6.020;2023-02-11T02:41:07;23.42;;;9.40;;
43098;SDS011;28715;51.988;6.020;2023-02-11T02:43:36;22.38;;;9.60;;
43098;SDS011;28715;51.988;6.020;2023-02-11T02:48:37;28.20;;;9.27;;
43098;SDS011;28715;51.988;6.020;2023-02-11T02:53:44;23.25;;;9.43;;
43098;SDS011;28715;51.988;6.020;2023-02-11T02:59:06;27.42;;;10.02;;
43098;SDS011;28715;51.988;6.020;2023-02-11T03:04:41;21.27;;;9.70;;
43098;SDS011;28715;51.988;6.020;2023-02-11T03:10:18;23.30;;;9.90;;
43098;SDS011;28715;51.988;6.020;2023-02-11T03:12:49;22.38;;;9.52;;
43098;SDS011;28715;51.988;6.020;2023-02-11T03:15:17;23.90;;;9.75;;
43098;SDS011;28715;51.988;6.020;2023-02-11T03:17:45;28.95;;;10.57;;
43098;SDS011;28715;51.988;6.020;2023-02-11T03:20:14;24.08;;;10.50;;
43098;SDS011;28715;51.988;6.020;2023-02-11T03:25:21;33.30;;;9.68;;
43098;SDS011;28715;51.988;6.020;2023-02-11T03:27:57;26.95;;;9.85;;
43098;SDS011;28715;51.988;6.020;2023-02-11T03:30:40;23.98;;;10.27;;
43098;SDS011;28715;51.988;6.020;2023-02-11T03:33:14;23.33;;;9.93;;
43098;SDS011;28715;51.988;6.020;2023-02-11T03:38:46;23.10;;;10.13;;
43098;SDS011;28715;51.988;6.020;2023-02-11T03:41:14;23.73;;;10.95;;
43098;SDS011;28715;51.988;6.020;2023-02-11T03:43:44;25.80;;;9.95;;
43098;SDS011;28715;51.988;6.020;2023-02-11T03:46:14;27.60;;;10.93;;
43098;SDS011;28715;51.988;6.020;2023-02-11T03:48:43;25.42;;;10.68;;
43098;SDS011;28715;51.988;6.020;2023-02-11T03:51:19;23.10;;;10.18;;
43098;SDS011;28715;51.988;6.020;2023-02-11T03:53:47;27.45;;;11.25;;
43098;SDS011;28715;51.988;6.020;2023-02-11T03:56:17;27.15;;;10.52;;
43098;SDS011;28715;51.988;6.020;2023-02-11T03:58:46;35.88;;;11.60;;
43098;SDS011;28715;51.988;6.020;2023-02-11T04:01:12;26.10;;;11.38;;
43098;SDS011;28715;51.988;6.020;2023-02-11T04:03:38;24.70;;;11.52;;
43098;SDS011;28715;51.988;6.020;2023-02-11T04:06:04;25.50;;;11.53;;
43098;SDS011;28715;51.988;6.020;2023-02-11T04:08:29;24.37;;;10.80;;
43098;SDS011;28715;51.988;6.020;2023-02-11T04:10:56;27.70;;;11.05;;
43098;SDS011;28715;51.988;6.020;2023-02-11T04:13:22;27.13;;;11.37;;
43098;SDS011;28715;51.988;6.020;2023-02-11T04:15:48;33.37;;;13.17;;
43098;SDS011;28715;51.988;6.020;2023-02-11T04:18:13;30.37;;;13.03;;
43098;SDS011;28715;51.988;6.020;2023-02-11T04:20:39;33.37;;;12.07;;
43098;SDS011;28715;51.988;6.020;2023-02-11T04:23:04;33.70;;;12.50;;
43098;SDS011;28715;51.988;6.020;2023-02-11T04:25:30;24.90;;;11.83;;
43098;SDS011;28715;51.988;6.020;2023-02-11T04:27:55;29.27;;;13.00;;
43098;SDS011;28715;51.988;6.020;2023-02-11T04:30:21;31.80;;;13.47;;
43098;SDS011;28715;51.988;6.020;2023-02-11T04:32:47;30.80;;;13.87;;
43098;SDS011;28715;51.988;6.020;2023-02-11T04:35:12;34.30;;;12.80;;
43098;SDS011;28715;51.988;6.020;2023-02-11T04:37:38;31.43;;;12.87;;
43098;SDS011;28715;51.988;6.020;2023-02-11T04:40:04;33.17;;;14.33;;
43098;SDS011;28715;51.988;6.020;2023-02-11T04:42:30;34.00;;;14.32;;
43098;SDS011;28715;51.988;6.020;2023-02-11T04:44:55;36.37;;;15.10;;
43098;SDS011;28715;51.988;6.020;2023-02-11T04:47:21;35.80;;;14.27;;
43098;SDS011;28715;51.988;6.020;2023-02-11T04:49:46;30.13;;;14.57;;
43098;SDS011;28715;51.988;6.020;2023-02-11T04:52:12;35.73;;;15.47;;
43098;SDS011;28715;51.988;6.020;2023-02-11T04:54:38;35.50;;;15.50;;
43098;SDS011;28715;51.988;6.020;2023-02-11T04:57:03;33.57;;;14.90;;
43098;SDS011;28715;51.988;6.020;2023-02-11T04:59:29;36.63;;;16.40;;
43098;SDS011;28715;51.988;6.020;2023-02-11T05:01:54;33.20;;;14.83;;
43098;SDS011;28715;51.988;6.020;2023-02-11T05:04:20;38.47;;;15.77;;
43098;SDS011;28715;51.988;6.020;2023-02-11T05:06:46;35.27;;;15.53;;
43098;SDS011;28715;51.988;6.020;2023-02-11T05:09:11;35.97;;;16.33;;
43098;SDS011;28715;51.988;6.020;2023-02-11T05:11:37;39.17;;;18.17;;
43098;SDS011;28715;51.988;6.020;2023-02-11T05:14:06;35.28;;;16.10;;
43098;SDS011;28715;51.988;6.020;2023-02-11T05:16:33;33.97;;;16.55;;
43098;SDS011;28715;51.988;6.020;2023-02-11T05:18:59;37.15;;;16.70;;
43098;SDS011;28715;51.988;6.020;2023-02-11T05:21:25;35.58;;;16.75;;
43098;SDS011;28715;51.988;6.020;2023-02-11T05:23:50;29.73;;;16.40;;
43098;SDS011;28715;51.988;6.020;2023-02-11T05:26:16;34.83;;;17.37;;
43098;SDS011;28715;51.988;6.020;2023-02-11T05:28:42;33.83;;;16.00;;
43098;SDS011;28715;51.988;6.020;2023-02-11T05:31:08;34.83;;;16.17;;
43098;SDS011;28715;51.988;6.020;2023-02-11T05:33:34;44.30;;;17.53;;
43098;SDS011;28715;51.988;6.020;2023-02-11T05:36:00;42.37;;;17.00;;
43098;SDS011;28715;51.988;6.020;2023-02-11T05:38:30;35.75;;;17.73;;
43098;SDS011;28715;51.988;6.020;2023-02-11T05:40:56;38.47;;;17.83;;
43098;SDS011;28715;51.988;6.020;2023-02-11T05:43:22;36.37;;;16.87;;
43098;SDS011;28715;51.988;6.020;2023-02-11T05:45:47;40.13;;;18.27;;
43098;SDS011;28715;51.988;6.020;2023-02-11T05:48:13;37.33;;;18.63;;
43098;SDS011;28715;51.988;6.020;2023-02-11T05:50:39;41.07;;;18.90;;
43098;SDS011;28715;51.988;6.020;2023-02-11T05:53:05;40.77;;;18.63;;
43098;SDS011;28715;51.988;6.020;2023-02-11T05:55:31;40.40;;;19.67;;
43098;SDS011;28715;51.988;6.020;2023-02-11T05:57:56;41.83;;;19.37;;
43098;SDS011;28715;51.988;6.020;2023-02-11T06:00:22;36.60;;;17.97;;
43098;SDS011;28715;51.988;6.020;2023-02-11T06:02:48;43.00;;;20.37;;
43098;SDS011;28715;51.988;6.020;2023-02-11T06:05:13;40.87;;;20.43;;
43098;SDS011;28715;51.988;6.020;2023-02-11T06:07:39;42.07;;;20.60;;
43098;SDS011;28715;51.988;6.020;2023-02-11T06:10:04;43.40;;;20.50;;
43098;SDS011;28715;51.988;6.020;2023-02-11T06:12:31;46.47;;;21.08;;
43098;SDS011;28715;51.988;6.020;2023-02-11T06:14:56;48.57;;;21.90;;
43098;SDS011;28715;51.988;6.020;2023-02-11T06:17:22;46.13;;;21.30;;
43098;SDS011;28715;51.988;6.020;2023-02-11T06:19:49;45.80;;;22.20;;
43098;SDS011;28715;51.988;6.020;2023-02-11T06:22:14;47.47;;;23.27;;
43098;SDS011;28715;51.988;6.020;2023-02-11T06:24:40;44.90;;;22.93;;
43098;SDS011;28715;51.988;6.020;2023-02-11T06:27:06;47.27;;;21.73;;
43098;SDS011;28715;51.988;6.020;2023-02-11T06:29:31;47.30;;;24.00;;
43098;SDS011;28715;51.988;6.020;2023-02-11T06:31:57;47.43;;;23.07;;
43098;SDS011;28715;51.988;6.020;2023-02-11T06:34:22;47.23;;;23.83;;
43098;SDS011;28715;51.988;6.020;2023-02-11T06:36:48;50.40;;;24.70;;
43098;SDS011;28715;51.988;6.020;2023-02-11T06:39:13;49.30;;;25.03;;
43098;SDS011;28715;51.988;6.020;2023-02-11T06:41:42;55.60;;;25.30;;
43098;SDS011;28715;51.988;6.020;2023-02-11T06:44:08;52.97;;;26.30;;
43098;SDS011;28715;51.988;6.020;2023-02-11T06:46:33;53.63;;;26.20;;
43098;SDS011;28715;51.988;6.020;2023-02-11T06:48:59;60.37;;;28.07;;
43098;SDS011;28715;51.988;6.020;2023-02-11T06:51:24;69.70;;;28.10;;
43098;SDS011;28715;51.988;6.020;2023-02-11T06:53:50;55.13;;;27.23;;
43098;SDS011;28715;51.988;6.020;2023-02-11T06:56:19;61.67;;;27.40;;
43098;SDS011;28715;51.988;6.020;2023-02-11T06:58:46;51.97;;;25.63;;
43098;SDS011;28715;51.988;6.020;2023-02-11T07:01:13;60.08;;;29.30;;
43098;SDS011;28715;51.988;6.020;2023-02-11T07:03:40;55.90;;;26.50;;
43098;SDS011;28715;51.988;6.020;2023-02-11T07:06:07;60.92;;;28.33;;
43098;SDS011;28715;51.988;6.020;2023-02-11T07:08:36;57.67;;;28.02;;
43098;SDS011;28715;51.988;6.020;2023-02-11T07:11:07;65.93;;;29.50;;
43098;SDS011;28715;51.988;6.020;2023-02-11T07:13:34;63.42;;;29.10;;
43098;SDS011;28715;51.988;6.020;2023-02-11T07:16:02;59.03;;;28.60;;
43098;SDS011;28715;51.988;6.020;2023-02-11T07:18:33;56.38;;;26.90;;
43098;SDS011;28715;51.988;6.020;2023-02-11T07:20:58;61.50;;;28.93;;
43098;SDS011;28715;51.988;6.020;2023-02-11T07:23:27;56.85;;;28.40;;
43098;SDS011;28715;51.988;6.020;2023-02-11T07:25:53;71.33;;;31.37;;
43098;SDS011;28715;51.988;6.020;2023-02-11T07:28:18;73.73;;;32.37;;
43098;SDS011;28715;51.988;6.020;2023-02-11T07:30:44;66.93;;;31.20;;
43098;SDS011;28715;51.988;6.020;2023-02-11T07:33:09;69.57;;;30.90;;
43098;SDS011;28715;51.988;6.020;2023-02-11T07:35:35;74.77;;;33.37;;
43098;SDS011;28715;51.988;6.020;2023-02-11T07:38:00;69.83;;;32.00;;
43098;SDS011;28715;51.988;6.020;2023-02-11T07:40:26;73.20;;;32.37;;
43098;SDS011;28715;51.988;6.020;2023-02-11T07:42:52;70.60;;;32.80;;
43098;SDS011;28715;51.988;6.020;2023-02-11T07:45:17;71.53;;;31.90;;
43098;SDS011;28715;51.988;6.020;2023-02-11T07:47:43;65.17;;;29.33;;
43098;SDS011;28715;51.988;6.020;2023-02-11T07:50:09;71.18;;;32.38;;
43098;SDS011;28715;51.988;6.020;2023-02-11T07:52:35;67.93;;;32.37;;
43098;SDS011;28715;51.988;6.020;2023-02-11T07:55:00;71.10;;;31.70;;
43098;SDS011;28715;51.988;6.020;2023-02-11T07:57:26;66.30;;;31.13;;
43098;SDS011;28715;51.988;6.020;2023-02-11T07:59:52;72.27;;;33.13;;
43098;SDS011;28715;51.988;6.020;2023-02-11T08:02:17;71.03;;;34.73;;
43098;SDS011;28715;51.988;6.020;2023-02-11T08:04:44;72.23;;;34.03;;
43098;SDS011;28715;51.988;6.020;2023-02-11T08:07:13;70.05;;;32.78;;
43098;SDS011;28715;51.988;6.020;2023-02-11T08:09:39;72.00;;;34.40;;
43098;SDS011;28715;51.988;6.020;2023-02-11T08:12:05;71.60;;;32.03;;
43098;SDS011;28715;51.988;6.020;2023-02-11T08:14:31;74.53;;;33.90;;
43098;SDS011;28715;51.988;6.020;2023-02-11T08:16:56;76.47;;;35.63;;
43098;SDS011;28715;51.988;6.020;2023-02-11T08:19:22;74.23;;;33.53;;
43098;SDS011;28715;51.988;6.020;2023-02-11T08:21:48;74.63;;;33.30;;
43098;SDS011;28715;51.988;6.020;2023-02-11T08:24:13;80.90;;;35.57;;
43098;SDS011;28715;51.988;6.020;2023-02-11T08:26:39;83.50;;;36.40;;
43098;SDS011;28715;51.988;6.020;2023-02-11T08:29:07;71.37;;;34.43;;
43098;SDS011;28715;51.988;6.020;2023-02-11T08:31:36;80.03;;;34.55;;
43098;SDS011;28715;51.988;6.020;2023-02-11T08:34:03;72.43;;;33.70;;
43098;SDS011;28715;51.988;6.020;2023-02-11T08:36:38;79.82;;;36.33;;
43098;SDS011;28715;51.988;6.020;2023-02-11T08:39:07;79.85;;;35.47;;
43098;SDS011;28715;51.988;6.020;2023-02-11T08:41:36;78.20;;;34.78;;
43098;SDS011;28715;51.988;6.020;2023-02-11T08:44:02;77.47;;;36.83;;
43098;SDS011;28715;51.988;6.020;2023-02-11T08:46:28;82.37;;;36.63;;
43098;SDS011;28715;51.988;6.020;2023-02-11T08:48:54;78.05;;;37.55;;
43098;SDS011;28715;51.988;6.020;2023-02-11T08:51:21;74.83;;;34.23;;
43098;SDS011;28715;51.988;6.020;2023-02-11T08:53:48;77.03;;;35.72;;
43098;SDS011;28715;51.988;6.020;2023-02-11T08:56:15;74.13;;;35.85;;
43098;SDS011;28715;51.988;6.020;2023-02-11T08:58:42;77.75;;;35.97;;
43098;SDS011;28715;51.988;6.020;2023-02-11T09:01:15;80.10;;;37.77;;
43098;SDS011;28715;51.988;6.020;2023-02-11T09:03:46;74.10;;;35.95;;
43098;SDS011;28715;51.988;6.020;2023-02-11T09:06:12;72.55;;;34.85;;
43098;SDS011;28715;51.988;6.020;2023-02-11T09:08:39;80.28;;;37.15;;
43098;SDS011;28715;51.988;6.020;2023-02-11T09:11:06;67.70;;;34.35;;
43098;SDS011;28715;51.988;6.020;2023-02-11T09:13:33;71.05;;;36.35;;
43098;SDS011;28715;51.988;6.020;2023-02-11T09:15:59;75.77;;;35.33;;
43098;SDS011;28715;51.988;6.020;2023-02-11T09:18:27;64.82;;;33.63;;
43098;SDS011;28715;51.988;6.020;2023-02-11T09:20:53;67.27;;;34.03;;
43098;SDS011;28715;51.988;6.020;2023-02-11T09:23:25;70.57;;;33.45;;
43098;SDS011;28715;51.988;6.020;2023-02-11T09:25:51;66.73;;;34.73;;
43098;SDS011;28715;51.988;6.020;2023-02-11T09:28:16;77.20;;;35.33;;
43098;SDS011;28715;51.988;6.020;2023-02-11T09:30:42;63.30;;;32.53;;
43098;SDS011;28715;51.988;6.020;2023-02-11T09:33:07;75.07;;;34.93;;
43098;SDS011;28715;51.988;6.020;2023-02-11T09:35:33;73.60;;;35.73;;
43098;SDS011;28715;51.988;6.020;2023-02-11T09:37:58;70.43;;;34.57;;
43098;SDS011;28715;51.988;6.020;2023-02-11T09:40:24;71.50;;;35.47;;
43098;SDS011;28715;51.988;6.020;2023-02-11T09:42:59;68.83;;;33.63;;
43098;SDS011;28715;51.988;6.020;2023-02-11T09:45:29;67.10;;;34.58;;
43098;SDS011;28715;51.988;6.020;2023-02-11T09:47:59;68.85;;;35.85;;
43098;SDS011;28715;51.988;6.020;2023-02-11T09:52:57;73.03;;;35.87;;
43098;SDS011;28715;51.988;6.020;2023-02-11T09:55:29;70.13;;;35.90;;
43098;SDS011;28715;51.988;6.020;2023-02-11T09:58:00;71.15;;;34.63;;
43098;SDS011;28715;51.988;6.020;2023-02-11T10:00:33;70.15;;;35.70;;
43098;SDS011;28715;51.988;6.020;2023-02-11T10:05:58;70.93;;;36.83;;
43098;SDS011;28715;51.988;6.020;2023-02-11T10:11:32;75.35;;;36.85;;
43098;SDS011;28715;51.988;6.020;2023-02-11T10:17:00;72.97;;;34.33;;
43098;SDS011;28715;51.988;6.020;2023-02-11T10:20:13;67.00;;;33.25;;
43098;SDS011;28715;51.988;6.020;2023-02-11T10:22:48;63.60;;;33.17;;
43098;SDS011;28715;51.988;6.020;2023-02-11T10:25:17;64.50;;;32.33;;
43098;SDS011;28715;51.988;6.020;2023-02-11T10:27:50;69.35;;;34.83;;
43098;SDS011;28715;51.988;6.020;2023-02-11T10:30:26;71.50;;;36.70;;
43098;SDS011;28715;51.988;6.020;2023-02-11T10:33:19;66.28;;;34.22;;
43098;SDS011;28715;51.988;6.020;2023-02-11T10:35:47;65.47;;;33.80;;
43098;SDS011;28715;51.988;6.020;2023-02-11T10:38:13;63.73;;;32.53;;
43098;SDS011;28715;51.988;6.020;2023-02-11T10:40:39;64.17;;;33.40;;
43098;SDS011;28715;51.988;6.020;2023-02-11T10:43:07;61.05;;;32.90;;
43098;SDS011;28715;51.988;6.020;2023-02-11T10:45:44;60.72;;;33.67;;
43098;SDS011;28715;51.988;6.020;2023-02-11T10:53:35;61.97;;;33.00;;
43098;SDS011;28715;51.988;6.020;2023-02-11T10:56:01;51.80;;;31.80;;
43098;SDS011;28715;51.988;6.020;2023-02-11T10:58:29;62.40;;;33.92;;
43098;SDS011;28715;51.988;6.020;2023-02-11T11:01:04;59.53;;;31.77;;
43098;SDS011;28715;51.988;6.020;2023-02-11T11:03:33;58.90;;;32.63;;
43098;SDS011;28715;51.988;6.020;2023-02-11T11:06:04;61.55;;;32.40;;
43098;SDS011;28715;51.988;6.020;2023-02-11T11:08:45;59.05;;;33.10;;
43098;SDS011;28715;51.988;6.020;2023-02-11T11:11:19;56.03;;;33.47;;
43098;SDS011;28715;51.988;6.020;2023-02-11T11:16:28;62.47;;;33.05;;
43098;SDS011;28715;51.988;6.020;2023-02-11T11:26:54;59.67;;;31.63;;
43098;SDS011;28715;51.988;6.020;2023-02-11T11:29:31;50.40;;;29.90;;
43098;SDS011;28715;51.988;6.020;2023-02-11T11:32:02;48.25;;;30.10;;
43098;SDS011;28715;51.988;6.020;2023-02-11T11:34:43;54.25;;;30.92;;
43098;SDS011;28715;51.988;6.020;2023-02-11T11:37:19;52.30;;;30.30;;
43098;SDS011;28715;51.988;6.020;2023-02-11T11:42:37;50.90;;;30.05;;
43098;SDS011;28715;51.988;6.020;2023-02-11T11:45:25;52.95;;;30.73;;
43098;SDS011;28715;51.988;6.020;2023-02-11T11:47:51;51.15;;;29.67;;
43098;SDS011;28715;51.988;6.020;2023-02-11T11:55:37;42.65;;;27.33;;
43098;SDS011;28715;51.988;6.020;2023-02-11T11:58:12;39.33;;;25.17;;
43098;SDS011;28715;51.988;6.020;2023-02-11T12:00:48;43.67;;;27.55;;
43098;SDS011;28715;51.988;6.020;2023-02-11T12:06:23;39.40;;;23.83;;
43098;SDS011;28715;51.988;6.020;2023-02-11T12:20:27;42.35;;;23.77;;
43098;SDS011;28715;51.988;6.020;2023-02-11T12:22:59;38.97;;;21.90;;
43098;SDS011;28715;51.988;6.020;2023-02-11T12:31:38;37.55;;;22.55;;
43098;SDS011;28715;51.988;6.020;2023-02-11T12:37:10;31.35;;;20.65;;
43098;SDS011;28715;51.988;6.020;2023-02-11T12:42:44;33.75;;;20.60;;
43098;SDS011;28715;51.988;6.020;2023-02-11T12:50:42;29.20;;;19.27;;
43098;SDS011;28715;51.988;6.020;2023-02-11T12:55:56;29.83;;;18.92;;
43098;SDS011;28715;51.988;6.020;2023-02-11T12:58:30;23.60;;;15.45;;
43098;SDS011;28715;51.988;6.020;2023-02-11T13:01:03;22.15;;;15.23;;
43098;SDS011;28715;51.988;6.020;2023-02-11T13:06:26;24.88;;;14.27;;
43098;SDS011;28715;51.988;6.020;2023-02-11T13:08:58;22.45;;;13.50;;
43098;SDS011;28715;51.988;6.020;2023-02-11T13:11:28;21.40;;;12.43;;
43098;SDS011;28715;51.988;6.020;2023-02-11T13:14:11;22.00;;;13.57;;
43098;SDS011;28715;51.988;6.020;2023-02-11T13:16:47;21.60;;;13.43;;
43098;SDS011;28715;51.988;6.020;2023-02-11T13:19:34;22.88;;;12.77;;
43098;SDS011;28715;51.988;6.020;2023-02-11T13:22:09;21.45;;;12.60;;
43098;SDS011;28715;51.988;6.020;2023-02-11T13:25:01;23.75;;;12.57;;
43098;SDS011;28715;51.988;6.020;2023-02-11T13:35:37;19.30;;;11.82;;
43098;SDS011;28715;51.988;6.020;2023-02-11T13:41:03;21.88;;;13.32;;
43098;SDS011;28715;51.988;6.020;2023-02-11T13:43:34;20.67;;;13.38;;
43098;SDS011;28715;51.988;6.020;2023-02-11T13:46:07;23.73;;;12.65;;
43098;SDS011;28715;51.988;6.020;2023-02-11T13:48:47;19.80;;;12.48;;
43098;SDS011;28715;51.988;6.020;2023-02-11T13:51:17;24.05;;;12.93;;
43098;SDS011;28715;51.988;6.020;2023-02-11T13:53:57;19.85;;;12.50;;
43098;SDS011;28715;51.988;6.020;2023-02-11T13:56:34;19.45;;;12.77;;
43098;SDS011;28715;51.988;6.020;2023-02-11T13:59:03;18.77;;;12.93;;
43098;SDS011;28715;51.988;6.020;2023-02-11T14:10:54;20.30;;;13.70;;
43098;SDS011;28715;51.988;6.020;2023-02-11T14:21:15;25.37;;;15.03;;
43098;SDS011;28715;51.988;6.020;2023-02-11T14:23:44;22.77;;;15.05;;
43098;SDS011;28715;51.988;6.020;2023-02-11T14:28:51;22.70;;;15.38;;
43098;SDS011;28715;51.988;6.020;2023-02-11T14:31:25;26.65;;;15.95;;
43098;SDS011;28715;51.988;6.020;2023-02-11T14:34:07;25.13;;;15.93;;
43098;SDS011;28715;51.988;6.020;2023-02-11T14:37:02;23.73;;;15.85;;
43098;SDS011;28715;51.988;6.020;2023-02-11T14:42:19;27.15;;;16.38;;
43098;SDS011;28715;51.988;6.020;2023-02-11T14:44:50;31.38;;;17.20;;
43098;SDS011;28715;51.988;6.020;2023-02-11T14:47:23;26.38;;;16.52;;
43098;SDS011;28715;51.988;6.020;2023-02-11T14:50:05;27.67;;;16.83;;
43098;SDS011;28715;51.988;6.020;2023-02-11T14:52:38;26.08;;;17.08;;
43098;SDS011;28715;51.988;6.020;2023-02-11T14:58:04;26.35;;;15.50;;
43098;SDS011;28715;51.988;6.020;2023-02-11T15:00:45;28.50;;;16.55;;
43098;SDS011;28715;51.988;6.020;2023-02-11T15:03:36;24.35;;;14.95;;
43098;SDS011;28715;51.988;6.020;2023-02-11T15:08:47;25.98;;;15.95;;
43098;SDS011;28715;51.988;6.020;2023-02-11T15:11:15;25.60;;;15.73;;
43098;SDS011;28715;51.988;6.020;2023-02-11T15:13:43;27.50;;;16.53;;
43098;SDS011;28715;51.988;6.020;2023-02-11T15:16:13;27.65;;;16.92;;
43098;SDS011;28715;51.988;6.020;2023-02-11T15:18:53;22.83;;;14.93;;
43098;SDS011;28715;51.988;6.020;2023-02-11T15:21:23;26.25;;;15.52;;
43098;SDS011;28715;51.988;6.020;2023-02-11T15:23:57;22.67;;;15.40;;
43098;SDS011;28715;51.988;6.020;2023-02-11T15:26:28;22.27;;;14.60;;
43098;SDS011;28715;51.988;6.020;2023-02-11T15:28:54;24.60;;;14.63;;
43098;SDS011;28715;51.988;6.020;2023-02-11T15:31:24;23.03;;;15.17;;
43098;SDS011;28715;51.988;6.020;2023-02-11T15:33:51;27.15;;;15.32;;
43098;SDS011;28715;51.988;6.020;2023-02-11T15:36:18;24.63;;;15.32;;
43098;SDS011;28715;51.988;6.020;2023-02-11T15:39:14;30.90;;;16.35;;
43098;SDS011;28715;51.988;6.020;2023-02-11T15:41:41;24.08;;;15.40;;
43098;SDS011;28715;51.988;6.020;2023-02-11T15:44:31;21.00;;;14.07;;
43098;SDS011;28715;51.988;6.020;2023-02-11T15:46:56;25.00;;;15.40;;
43098;SDS011;28715;51.988;6.020;2023-02-11T15:49:22;24.27;;;15.23;;
43098;SDS011;28715;51.988;6.020;2023-02-11T15:51:49;24.25;;;14.90;;
43098;SDS011;28715;51.988;6.020;2023-02-11T15:54:20;24.40;;;16.52;;
43098;SDS011;28715;51.988;6.020;2023-02-11T15:56:50;28.25;;;16.17;;
43098;SDS011;28715;51.988;6.020;2023-02-11T16:02:14;26.38;;;16.17;;
43098;SDS011;28715;51.988;6.020;2023-02-11T16:04:50;24.55;;;15.82;;
43098;SDS011;28715;51.988;6.020;2023-02-11T16:07:41;28.23;;;16.83;;
43098;SDS011;28715;51.988;6.020;2023-02-11T16:18:02;27.92;;;16.27;;
43098;SDS011;28715;51.988;6.020;2023-02-11T16:20:36;25.08;;;16.35;;
43098;SDS011;28715;51.988;6.020;2023-02-11T16:23:02;24.33;;;15.73;;
43098;SDS011;28715;51.988;6.020;2023-02-11T16:25:28;24.45;;;14.65;;
43098;SDS011;28715;51.988;6.020;2023-02-11T16:27:54;22.47;;;15.40;;
43098;SDS011;28715;51.988;6.020;2023-02-11T16:32:52;22.63;;;15.68;;
43098;SDS011;28715;51.988;6.020;2023-02-11T16:35:18;24.45;;;15.48;;
43098;SDS011;28715;51.988;6.020;2023-02-11T16:37:43;24.50;;;15.37;;
43098;SDS011;28715;51.988;6.020;2023-02-11T16:40:10;25.57;;;15.63;;
43098;SDS011;28715;51.988;6.020;2023-02-11T16:42:36;25.02;;;14.55;;
43098;SDS011;28715;51.988;6.020;2023-02-11T16:45:01;28.83;;;17.50;;
43098;SDS011;28715;51.988;6.020;2023-02-11T16:47:27;26.02;;;17.00;;
43098;SDS011;28715;51.988;6.020;2023-02-11T16:49:55;31.55;;;17.30;;
43098;SDS011;28715;51.988;6.020;2023-02-11T16:52:21;25.35;;;15.75;;
43098;SDS011;28715;51.988;6.020;2023-02-11T16:54:48;24.15;;;15.13;;
43098;SDS011;28715;51.988;6.020;2023-02-11T16:57:15;24.45;;;15.10;;
43098;SDS011;28715;51.988;6.020;2023-02-11T16:59:43;27.00;;;15.95;;
43098;SDS011;28715;51.988;6.020;2023-02-11T17:02:28;24.77;;;15.20;;
43098;SDS011;28715;51.988;6.020;2023-02-11T17:04:58;26.55;;;17.17;;
43098;SDS011;28715;51.988;6.020;2023-02-11T17:07:25;28.25;;;17.73;;
43098;SDS011;28715;51.988;6.020;2023-02-11T17:09:51;26.58;;;15.05;;
43098;SDS011;28715;51.988;6.020;2023-02-11T17:12:17;22.23;;;13.87;;
43098;SDS011;28715;51.988;6.020;2023-02-11T17:14:43;19.73;;;12.65;;
43098;SDS011;28715;51.988;6.020;2023-02-11T17:17:09;24.73;;;13.53;;
43098;SDS011;28715;51.988;6.020;2023-02-11T17:19:35;21.50;;;12.75;;